createdAt,value
2022-09-05T00:01:17.649Z,15.7
2022-09-05T00:06:02.273Z,19.0
2022-09-05T00:11:41.754Z,16.8
2022-09-05T00:16:12.821Z,16.3
2022-09-05T00:24:27.972Z,14.7
2022-09-05T00:26:28.561Z,15.2
2022-09-05T00:31:55.559Z,13.8
2022-09-05T00:36:29.420Z,15.7
2022-09-05T00:41:45.826Z,20.3
2022-09-05T00:46:52.248Z,16.3
2022-09-05T00:52:18.609Z,19.2
2022-09-05T00:57:04.956Z,15.3
2022-09-05T01:02:11.559Z,17.9
2022-09-05T01:07:17.863Z,14.0
2022-09-05T01:12:14.321Z,17.0
2022-09-05T01:17:20.707Z,29.1
2022-09-05T01:22:37.174Z,14.2
2022-09-05T01:29:13.419Z,14.4
2022-09-05T01:32:49.861Z,16.4
2022-09-05T01:37:56.235Z,15.5
2022-09-05T01:43:02.637Z,16.3
2022-09-05T01:48:29.171Z,15.2
2022-09-05T01:53:35.665Z,17.0
2022-09-05T01:58:22.574Z,16.8
2022-09-05T02:03:27.990Z,20.0
2022-09-05T02:08:35.331Z,15.9
2022-09-05T02:13:41.708Z,22.8
2022-09-05T02:19:12.298Z,16.3
2022-09-05T02:23:54.649Z,15.6
2022-09-05T02:29:01.181Z,16.0
2022-09-05T02:34:07.606Z,14.9
2022-09-05T02:45:00.884Z,20.4
2022-09-05T02:45:26.955Z,16.9
2022-09-05T02:51:53.606Z,16.2
2022-09-05T02:57:24.058Z,18.5
2022-09-05T03:00:20.584Z,23.5
2022-09-05T03:05:26.986Z,15.6
2022-09-05T03:10:53.235Z,15.9
2022-09-05T03:15:29.845Z,21.3
2022-09-05T03:21:30.353Z,16.8
2022-09-05T03:25:52.834Z,16.5
2022-09-05T03:30:59.240Z,17.4
2022-09-05T03:35:55.549Z,16.8
2022-09-05T03:41:11.956Z,15.3
2022-09-05T03:46:08.399Z,17.5
2022-09-05T03:57:12.367Z,16.1
2022-09-05T03:57:17.819Z,16.1
2022-09-05T04:06:36.139Z,16.0
2022-09-05T04:08:26.467Z,18.2
2022-09-05T04:11:50.362Z,18.3
2022-09-05T04:16:56.892Z,16.2
2022-09-05T04:22:03.241Z,25.3
2022-09-05T04:27:34.821Z,17.0
2022-09-05T04:32:18.794Z,28.8
2022-09-05T04:37:23.664Z,16.2
2022-09-05T04:42:20.020Z,20.3
2022-09-05T04:47:36.427Z,17.9
2022-09-05T04:55:03.046Z,21.2
2022-09-05T04:59:03.736Z,16.3
2022-09-05T05:06:10.259Z,18.2
2022-09-05T05:08:38.027Z,20.0
2022-09-05T05:18:03.358Z,19.4
2022-09-05T05:18:46.912Z,34.8
2022-09-05T05:23:21.383Z,17.3
2022-09-05T05:28:28.105Z,32.5
2022-09-05T05:33:34.315Z,17.4
2022-09-05T05:38:40.693Z,20.3
2022-09-05T05:43:47.082Z,20.7
2022-09-05T05:48:56.955Z,18.7
2022-09-05T05:53:59.938Z,26.4
2022-09-05T06:00:14.929Z,19.2
2022-09-05T06:06:16.982Z,20.0
2022-09-05T06:14:49.842Z,19.9
2022-09-05T06:15:13.189Z,20.8
2022-09-05T06:31:31.957Z,20.4
2022-09-05T06:36:15.017Z,22.0
2022-09-05T06:41:21.409Z,18.7
2022-09-05T06:47:21.941Z,18.7
2022-09-05T06:52:09.763Z,19.5
2022-09-05T06:57:21.644Z,23.3
2022-09-05T07:02:59.800Z,18.2
2022-09-05T07:07:35.418Z,21.1
2022-09-05T07:12:31.823Z,25.5
2022-09-05T07:18:12.278Z,22.0
2022-09-05T07:22:48.352Z,29.0
2022-09-05T07:28:29.866Z,21.1
2022-09-05T07:33:07.452Z,22.6
2022-09-05T07:38:03.822Z,19.6
2022-09-05T07:43:10.719Z,20.4
2022-09-05T07:48:34.184Z,19.1
2022-09-05T07:56:55.403Z,22.9
2022-09-05T07:58:39.596Z,19.7
2022-09-05T08:03:36.097Z,20.0
2022-09-05T08:09:21.461Z,24.7
2022-09-05T08:14:38.543Z,20.5
2022-09-05T08:19:05.293Z,15.6
2022-09-05T08:24:01.650Z,21.4
2022-09-05T08:29:19.710Z,14.5
2022-09-05T08:34:31.516Z,13.8
2022-09-05T08:39:32.540Z,17.6
2022-09-05T08:46:42.291Z,12.4
2022-09-05T08:52:39.694Z,13.1
2022-09-05T08:55:26.859Z,20.6
2022-09-05T09:00:33.273Z,12.0
2022-09-05T09:06:12.003Z,12.9
2022-09-05T09:10:45.946Z,12.8
2022-09-05T09:15:52.417Z,13.6
2022-09-05T09:21:18.737Z,12.9
2022-09-05T09:26:05.091Z,13.0
2022-09-05T09:31:01.473Z,11.5
2022-09-05T09:36:17.846Z,14.3
2022-09-05T09:48:36.917Z,10.9
2022-09-05T09:52:21.242Z,13.9
2022-09-05T09:57:42.542Z,13.6
2022-09-05T10:10:32.737Z,10.0
2022-09-05T10:10:45.728Z,20.1
2022-09-05T10:12:37.638Z,10.0
2022-09-05T10:19:08.175Z,10.1
2022-09-05T10:23:14.449Z,10.8
2022-09-05T10:28:16.812Z,10.6
2022-09-05T10:35:08.291Z,19.2
2022-09-05T10:38:43.739Z,10.2
2022-09-05T10:43:51.156Z,9.1
2022-09-05T10:48:57.507Z,11.4
2022-09-05T10:54:03.886Z,8.8
2022-09-05T11:01:33.395Z,9.6
2022-09-05T11:04:16.822Z,15.3
2022-09-05T11:09:23.140Z,9.3
2022-09-05T11:15:47.787Z,12.7
2022-09-05T11:19:25.893Z,9.5
2022-09-05T11:24:42.413Z,9.7
2022-09-05T11:29:48.812Z,9.1
2022-09-05T11:40:02.008Z,9.4
2022-09-05T11:41:11.645Z,9.2
2022-09-05T11:45:07.995Z,8.6
2022-09-05T11:50:09.137Z,9.6
2022-09-05T11:55:21.729Z,9.0
2022-09-05T12:00:33.453Z,9.5
2022-09-05T12:05:49.921Z,9.6
2022-09-05T12:11:04.119Z,9.8
2022-09-05T12:16:07.893Z,8.6
2022-09-05T12:20:43.668Z,11.7
2022-09-05T12:27:42.468Z,9.0
2022-09-05T12:32:36.584Z,9.9
2022-09-05T12:40:40.226Z,9.2
2022-09-05T12:41:43.994Z,8.9
2022-09-05T12:46:24.891Z,18.0
2022-09-05T12:51:46.725Z,9.6
2022-09-05T13:02:02.812Z,9.7
2022-09-05T13:03:12.049Z,9.9
2022-09-05T13:06:50.533Z,9.6
2022-09-05T13:14:53.765Z,9.4
2022-09-05T13:16:53.242Z,11.2
2022-09-05T13:22:09.630Z,9.4
2022-09-05T13:27:16.013Z,9.6
2022-09-05T13:37:58.801Z,9.7
2022-09-05T13:38:19.615Z,10.7
2022-09-05T13:42:25.406Z,11.2
2022-09-05T13:48:01.852Z,11.3
2022-09-05T13:52:48.195Z,9.6
2022-09-05T13:58:14.603Z,9.8
2022-09-05T14:08:09.864Z,10.4
2022-09-05T14:13:37.287Z,10.0
2022-09-05T14:18:23.726Z,13.1
2022-09-05T14:23:30.002Z,9.9
2022-09-05T14:28:36.365Z,17.0
2022-09-05T14:37:44.744Z,10.4
2022-09-05T14:38:49.283Z,11.5
2022-09-05T14:43:46.096Z,10.5
2022-09-05T14:49:01.006Z,14.5
2022-09-05T14:54:08.699Z,14.8
2022-09-05T15:02:53.351Z,11.6
2022-09-05T15:12:15.620Z,10.7
2022-09-05T15:15:59.078Z,10.9
2022-09-05T15:19:40.524Z,10.9
2022-09-05T15:24:36.894Z,12.1
2022-09-05T15:29:53.409Z,11.5
2022-09-05T15:35:23.875Z,20.2
2022-09-05T15:40:07.665Z,11.9
2022-09-05T15:45:32.699Z,11.3
2022-09-05T15:50:22.434Z,11.3
2022-09-05T15:55:25.326Z,11.1
2022-09-05T16:00:31.702Z,12.0
2022-09-05T16:10:31.287Z,12.0
2022-09-05T16:11:07.009Z,12.3
2022-09-05T16:22:26.635Z,12.5
2022-09-05T16:23:32.900Z,11.7
2022-09-05T16:26:03.849Z,26.5
2022-09-05T16:31:10.253Z,11.5
2022-09-05T16:36:16.651Z,13.2
2022-09-05T16:41:24.572Z,14.2
2022-09-05T16:46:29.391Z,21.7
2022-09-05T16:51:36.339Z,12.8
2022-09-05T16:57:02.321Z,31.1
2022-09-05T17:01:48.998Z,12.6
2022-09-05T17:07:09.193Z,13.3
2022-09-05T17:12:25.625Z,12.1
2022-09-05T17:18:19.519Z,17.1
2022-09-05T17:24:37.119Z,17.7
2022-09-05T17:29:26.024Z,15.8
2022-09-05T17:32:27.127Z,14.2
2022-09-05T17:37:33.506Z,15.8
2022-09-05T17:42:39.880Z,20.5
2022-09-05T17:48:06.294Z,14.7
2022-09-05T17:52:42.631Z,14.9
2022-09-05T17:57:58.029Z,14.5
2022-09-05T18:04:16.020Z,44.9
2022-09-05T18:08:13.357Z,39.0
2022-09-05T18:13:32.278Z,67.3
2022-09-05T18:18:24.291Z,81.1
2022-09-05T18:23:39.685Z,72.8
2022-09-05T18:28:59.241Z,128.1
2022-09-05T18:33:55.376Z,45.1
2022-09-05T18:39:05.801Z,37.9
2022-09-05T18:44:12.336Z,38.9
2022-09-05T18:50:22.188Z,15.7
2022-09-05T18:54:16.346Z,14.0
2022-09-05T18:59:17.322Z,12.8
2022-09-05T19:04:40.876Z,33.4
2022-09-05T19:09:50.094Z,18.2
2022-09-05T19:14:36.433Z,19.8
2022-09-05T19:19:42.822Z,15.2
2022-09-05T19:24:49.198Z,12.9
2022-09-05T19:36:59.598Z,14.2
2022-09-05T19:37:04.963Z,13.0
2022-09-05T19:47:26.472Z,18.4
2022-09-05T19:47:50.724Z,16.7
2022-09-05T19:50:21.096Z,13.5
2022-09-05T19:55:27.477Z,16.4
2022-09-05T20:00:34.024Z,17.6
2022-09-05T20:05:40.352Z,15.7
2022-09-05T20:10:36.710Z,13.8
2022-09-05T20:15:53.193Z,15.1
2022-09-05T20:20:59.501Z,15.2
2022-09-05T20:25:55.976Z,13.3
2022-09-05T20:31:32.657Z,14.9
2022-09-05T20:43:12.569Z,15.6
2022-09-05T20:43:26.645Z,14.6
2022-09-05T20:50:08.275Z,20.4
2022-09-05T20:54:17.182Z,13.0
2022-09-05T21:01:52.681Z,14.9
2022-09-05T21:03:46.742Z,20.5
2022-09-05T21:07:18.936Z,13.9
2022-09-05T21:13:08.461Z,13.9
2022-09-05T21:17:16.043Z,16.0
2022-09-05T21:22:45.195Z,13.6
2022-09-05T21:32:41.169Z,22.2
2022-09-05T21:37:40.364Z,24.9
2022-09-05T21:47:20.341Z,14.6
2022-09-05T21:54:42.620Z,15.5
2022-09-05T21:59:20.006Z,15.0
2022-09-05T21:59:20.587Z,16.0
2022-09-05T22:03:18.797Z,14.8
2022-09-05T22:13:28.813Z,18.6
2022-09-05T22:19:03.275Z,15.4
2022-09-05T22:28:47.995Z,13.4
2022-09-05T22:33:54.395Z,22.1
2022-09-05T22:40:01.023Z,14.5
2022-09-05T22:46:55.521Z,17.6
2022-09-05T22:50:37.733Z,16.1
2022-09-05T22:54:39.990Z,14.7
2022-09-05T22:59:46.385Z,14.4
2022-09-05T23:04:32.807Z,13.6
2022-09-05T23:12:47.484Z,20.5
2022-09-05T23:15:45.702Z,14.3
2022-09-05T23:20:15.931Z,15.4
2022-09-05T23:25:01.424Z,27.7
2022-09-05T23:30:07.792Z,21.8
2022-09-05T23:35:14.191Z,14.6
2022-09-05T23:40:24.556Z,13.8
2022-09-05T23:45:26.927Z,14.1
2022-09-05T23:50:33.297Z,13.7
2022-09-05T23:55:59.738Z,15.6
